Copa B738 at Cordoba on Sep 3rd 2018, burst tyre on landing

Last Update: September 4, 2018 / 16:56:20 GMT/Zulu time

Bookmark this article
Incident Facts

Date of incident
Sep 3, 2018

Classification
Incident

Flight number
CM-124

Aircraft Registration
HP-1821CMP

Aircraft Type
Boeing 737-800

ICAO Type Designator
B738

Airport ICAO Code
SACO

A Copa Airlines Boeing 737-800, registration HP-1821CMP performing flight CM-124 (dep Sep 2nd) from Panama City (Panama) to Cordoba,CD (Argentina), landed on Cordoboa's runway 18 at 03:14L (06:14Z) and turned off the runway into taxiway C (about 1900 meters/6300 feet down the runway) and taxied to the apron.

Argentina's JIAAC reported they have opened an investigation into the occurrence, the exact nature of which has yet to be determined and that had happened at 06:15 UTC. There were no injuries.

According to a photo that surfaced in Argentina the inboard right main tyre deflated.

Metars:
SACO 030800Z 32003KT CAVOK 03/02 Q1022 NOSIG=
SACO 030700Z 27006KT CAVOK 04/03 Q1022 NOSIG=
SACO 030600Z 36006KT CAVOK 07/04 Q1022C NOSIG=
SACO 030500Z 32006KT CAVOK 07/04 Q1022 NOSIG=
SACO 030400Z 32005KT CAVOK 06/03 Q1022 NOSIG=
SACO 030300Z 36004KT CAVOK 06/03 Q1022 NOSIG=
SACO 030200Z 36004KT CAVOK 07/03 Q1022 NOSIG=
SACO 030100Z 36004KT CAVOK 07/03 Q1022 NOSIG=
Incident Facts

Date of incident
Sep 3, 2018

Classification
Incident

Flight number
CM-124

Aircraft Registration
HP-1821CMP

Aircraft Type
Boeing 737-800

ICAO Type Designator
B738

Airport ICAO Code
SACO

This article is published under license from Avherald.com. © of text by Avherald.com.
Article source

You can read 2 more free articles without a subscription.

Subscribe now and continue reading without any limits!

Are you a subscriber? Login
Subscribe

Read unlimited articles and receive our daily update briefing. Gain better insights into what is happening in commercial aviation safety.

Free newsletter

Want to know more and stay ahead? Get our free weekly newsletter and join 5465 existing subscribers.

By subscribing, you accept our terms and conditions and confirm that you've read our privacy policy.

Send tip

Support AeroInside by sending a small tip amount.

Related articles

Newest articles

Subscribe today

Are you researching aviation incidents? Get access to AeroInside Insights, unlimited read access and receive the daily newsletter.

Pick your plan and subscribe

Partner

Blockaviation logo

A new way to document and demonstrate airworthiness compliance and aircraft value. Find out more.

Virtual Speech logo

ELITE Simulation Solutions is a leading global provider of Flight Simulation Training Devices, IFR training software as well as flight controls and related services. Find out more.

Get updates

Never miss an article from AeroInside. Subscribe to our free weekly newsletter and join 5465 existing subscribers.

By subscribing, you accept our terms and conditions and that you've read our privacy policy.

AeroInside Blog
Popular aircraft
Airbus A320
Boeing 737-800
Boeing 737-800 MAX
Popular airlines
American Airlines
United
Delta
Air Canada
Lufthansa
British Airways